Seastreak Highlands — WDE4031 — position and weather

sailwx.info

Track history (hours):
 
Tides and Currents Weather Stations Pressure Air Temp Water Temp Dewpoint Dewpoint Depression Visibility Wind Speed Wind Dir Waves Ship Positions

Seastreak Highlands

Owner: Seastreak llc, atlantic highlands, NJ. More information available from US FCC via Universal Licensing System and Coast Guard Vessel Documentation Center.

Last reported at 2017-Sep-21 20:29 UTC. Time now 2017-Sep-24 10:18 UTC.
Position N 40°25' W 074°02'.

Length 44 m.

Type: High speed craft. MMSI: 367347670.

Date/timePositionNaut miles runAvg speedWind from/ knotsBaromVisibWave heightAir tempDewpointWater temp
2017-Sep-21 20:29N 40°25' W 074°02'0 0.0
2017-Sep-21 17:00N 40°25' W 074°02'0 0.0
2017-Sep-21 15:59N 40°25' W 074°02'0 0.0
2017-Sep-21 15:24N 40°25' W 074°02'0 0.0
2017-Sep-21 10:10N 40°25' W 074°02'0 0.0
2017-Sep-21 09:48N 40°25' W 074°02'0 0.0
2017-Sep-20 16:37N 40°25' W 074°02'0 0.0
2017-Sep-20 09:47N 40°25' W 074°02'0 0.0
2017-Sep-19 11:43N 40°25' W 074°02'0 0.0
2017-Sep-19 10:42N 40°25' W 074°02'0 0.0
2017-Sep-19 09:41N 40°25' W 074°02'0 0.0
2017-Sep-18 10:36N 40°25' W 074°02'0 0.0
2017-Sep-18 10:18N 40°25' W 074°02'0 0.0
2017-Sep-18 09:57N 40°25' W 074°02'0 0.0
2017-Sep-17 15:17N 40°25' W 074°02'0 0.0
2017-Sep-17 15:00N 40°25' W 074°02'2 2.1
2017-Sep-17 14:07N 40°25' W 073°60'  
2017-Sep-14 19:40N 40°25' W 074°02'2 2.0
2017-Sep-14 18:45N 40°25' W 073°60'0 1.0
2017-Sep-14 18:26N 40°25' W 074°00'920.2
2017-Sep-14 18:00N 40°33' W 074°02'918.3
2017-Sep-14 17:31N 40°42' W 074°00'1 1.7
2017-Sep-14 17:01N 40°42' W 073°59'1428.4
2017-Sep-14 16:30N 40°28' W 074°01'1 1.0
2017-Sep-14 15:54N 40°28' W 074°01'1331.5
2017-Sep-14 15:31N 40°40' W 074°02'5 9.9
2017-Sep-14 15:01N 40°44' W 073°58'510.7
2017-Sep-14 14:31N 40°39' W 074°02'1417.0
2017-Sep-14 13:43N 40°26' W 074°02'317.0
2017-Sep-14 13:31N 40°29' W 074°02'1325.7
2017-Sep-14 13:01N 40°42' W 074°00'3 5.8
2017-Sep-14 12:31N 40°45' W 073°58'816.2
2017-Sep-14 12:01N 40°37' W 074°03'1223.4
2017-Sep-14 11:30N 40°25' W 074°02'1 0.1
2017-Sep-14 02:55N 40°25' W 074°01'916.4
2017-Sep-14 02:23N 40°34' W 074°02'822.3
2017-Sep-14 02:00N 40°42' W 074°00'3 6.0
2017-Sep-14 01:31N 40°45' W 073°58'1019.9
2017-Sep-14 01:01N 40°35' W 074°02'10 6.1
2017-Sep-13 23:24N 40°25' W 074°01'713.9
2017-Sep-13 22:55N 40°32' W 074°02'1024.6
2017-Sep-13 22:31N 40°42' W 074°00'3 6.1
2017-Sep-13 22:01N 40°45' W 073°58'1325.0
2017-Sep-13 21:30N 40°32' W 074°02'0 0.3
2017-Sep-13 20:39N 40°33' W 074°02'530.7
2017-Sep-13 20:31N 40°37' W 074°03'816.4
2017-Sep-13 20:01N 40°45' W 073°58'1020.0
2017-Sep-13 19:30N 40°35' W 074°03'3 1.9
2017-Sep-13 18:03N 40°32' W 074°02'230.4
2017-Sep-13 18:00N 40°34' W 074°02'817.3
2017-Sep-13 17:31N 40°42' W 073°60'0 1.0
2017-Sep-13 17:01N 40°42' W 073°59'11 7.7
2017-Sep-13 15:36N 40°32' W 074°02'332.3
2017-Sep-13 15:30N 40°35' W 074°03'816.0
2017-Sep-13 15:01N 40°42' W 074°02'612.6
2017-Sep-13 14:30N 40°38' W 074°09'0 0.7
2017-Sep-13 14:00N 40°39' W 074°08'918.5
2017-Sep-13 13:30N 40°46' W 074°00'3 6.5
2017-Sep-13 13:01N 40°42' W 073°59'2 4.7
2017-Sep-13 12:31N 40°45' W 073°58'815.5
2017-Sep-13 12:01N 40°38' W 074°03'1224.0
2017-Sep-13 11:29N 40°25' W 074°02'0 0.0
2017-Sep-13 11:00N 40°25' W 074°02'0 0.0
2017-Sep-13 10:30N 40°25' W 074°02'0 0.0
2017-Sep-13 10:00N 40°25' W 074°02'0 0.0
2017-Sep-13 09:30N 40°25' W 074°02'0 0.0
2017-Sep-12 23:43N 40°25' W 074°02'2 8.8
2017-Sep-12 23:28N 40°27' W 074°02'2 3.8
2017-Sep-12 23:00N 40°29' W 074°02'  
Track history (hours):
 
Tides and Currents Weather Stations Pressure Air Temp Water Temp Dewpoint Dewpoint Depression Visibility Wind Speed Wind Dir Waves Ship Positions

Seastreak Highlands

Owner: Seastreak llc, atlantic highlands, NJ. More information available from US FCC via Universal Licensing System and Coast Guard Vessel Documentation Center.

Last reported at 2017-Sep-21 20:29 UTC. Time now 2017-Sep-24 10:18 UTC.
Position N 40°25' W 074°02'.

Length 44 m.

Type: High speed craft. MMSI: 367347670.

Date/timePositionNaut miles runAvg speedWind from/ knotsBaromVisibWave heightAir tempDewpointWater temp
2017-Sep-21 20:29N 40°25' W 074°02'0 0.0
2017-Sep-21 17:00N 40°25' W 074°02'0 0.0
2017-Sep-21 15:59N 40°25' W 074°02'0 0.0
2017-Sep-21 15:24N 40°25' W 074°02'0 0.0
2017-Sep-21 10:10N 40°25' W 074°02'0 0.0
2017-Sep-21 09:48N 40°25' W 074°02'0 0.0
2017-Sep-20 16:37N 40°25' W 074°02'0 0.0
2017-Sep-20 09:47N 40°25' W 074°02'0 0.0
2017-Sep-19 11:43N 40°25' W 074°02'0 0.0
2017-Sep-19 10:42N 40°25' W 074°02'0 0.0
2017-Sep-19 09:41N 40°25' W 074°02'0 0.0
2017-Sep-18 10:36N 40°25' W 074°02'0 0.0
2017-Sep-18 10:18N 40°25' W 074°02'0 0.0
2017-Sep-18 09:57N 40°25' W 074°02'0 0.0
2017-Sep-17 15:17N 40°25' W 074°02'0 0.0
2017-Sep-17 15:00N 40°25' W 074°02'2 2.1
2017-Sep-17 14:07N 40°25' W 073°60'  
2017-Sep-14 19:40N 40°25' W 074°02'2 2.0
2017-Sep-14 18:45N 40°25' W 073°60'0 1.0
2017-Sep-14 18:26N 40°25' W 074°00'920.2
2017-Sep-14 18:00N 40°33' W 074°02'918.3
2017-Sep-14 17:31N 40°42' W 074°00'1 1.7
2017-Sep-14 17:01N 40°42' W 073°59'1428.4
2017-Sep-14 16:30N 40°28' W 074°01'1 1.0
2017-Sep-14 15:54N 40°28' W 074°01'1331.5
2017-Sep-14 15:31N 40°40' W 074°02'5 9.9
2017-Sep-14 15:01N 40°44' W 073°58'510.7
2017-Sep-14 14:31N 40°39' W 074°02'1417.0
2017-Sep-14 13:43N 40°26' W 074°02'317.0
2017-Sep-14 13:31N 40°29' W 074°02'1325.7
2017-Sep-14 13:01N 40°42' W 074°00'3 5.8
2017-Sep-14 12:31N 40°45' W 073°58'816.2
2017-Sep-14 12:01N 40°37' W 074°03'1223.4
2017-Sep-14 11:30N 40°25' W 074°02'1 0.1
2017-Sep-14 02:55N 40°25' W 074°01'916.4
2017-Sep-14 02:23N 40°34' W 074°02'822.3
2017-Sep-14 02:00N 40°42' W 074°00'3 6.0
2017-Sep-14 01:31N 40°45' W 073°58'1019.9
2017-Sep-14 01:01N 40°35' W 074°02'10 6.1
2017-Sep-13 23:24N 40°25' W 074°01'713.9
2017-Sep-13 22:55N 40°32' W 074°02'1024.6
2017-Sep-13 22:31N 40°42' W 074°00'3 6.1
2017-Sep-13 22:01N 40°45' W 073°58'1325.0
2017-Sep-13 21:30N 40°32' W 074°02'0 0.3
2017-Sep-13 20:39N 40°33' W 074°02'530.7
2017-Sep-13 20:31N 40°37' W 074°03'816.4
2017-Sep-13 20:01N 40°45' W 073°58'1020.0
2017-Sep-13 19:30N 40°35' W 074°03'3 1.9
2017-Sep-13 18:03N 40°32' W 074°02'230.4
2017-Sep-13 18:00N 40°34' W 074°02'817.3
2017-Sep-13 17:31N 40°42' W 073°60'0 1.0
2017-Sep-13 17:01N 40°42' W 073°59'11 7.7
2017-Sep-13 15:36N 40°32' W 074°02'332.3
2017-Sep-13 15:30N 40°35' W 074°03'816.0
2017-Sep-13 15:01N 40°42' W 074°02'612.6
2017-Sep-13 14:30N 40°38' W 074°09'0 0.7
2017-Sep-13 14:00N 40°39' W 074°08'918.5
2017-Sep-13 13:30N 40°46' W 074°00'3 6.5
2017-Sep-13 13:01N 40°42' W 073°59'2 4.7
2017-Sep-13 12:31N 40°45' W 073°58'815.5
2017-Sep-13 12:01N 40°38' W 074°03'1224.0
2017-Sep-13 11:29N 40°25' W 074°02'0 0.0
2017-Sep-13 11:00N 40°25' W 074°02'0 0.0
2017-Sep-13 10:30N 40°25' W 074°02'0 0.0
2017-Sep-13 10:00N 40°25' W 074°02'0 0.0
2017-Sep-13 09:30N 40°25' W 074°02'0 0.0
2017-Sep-12 23:43N 40°25' W 074°02'2 8.8
2017-Sep-12 23:28N 40°27' W 074°02'2 3.8
2017-Sep-12 23:00N 40°29' W 074°02'  

Dump ship's entire track history